Quiberon — FNQY — position and weather

sailwx.info

Track history (hours):
 
Tides and Currents Weather Stations Pressure Air Temp Water Temp Dewpoint Dewpoint Depression Visibility Wind Speed Wind Dir Waves Ship Positions

Quiberon

Operator: Brittany Ferries

Last reported at 2019-Jul-17 03:47 UTC. Time now 2019-Jul-20 14:20 UTC.
Position N 44°53' W 000°32'.

Length 25 m; draft 4.8 m.

Type: Tug. MMSI: 228296800.

Date/timePositionNaut miles runAvg speedWind from/ knotsBaromVisibWave heightAir tempDewpointWater temp
2019-Jul-17 03:47N 44°53' W 000°32'0 0.0
2019-Jul-17 03:29N 44°53' W 000°32'0 0.0
2019-Jul-17 03:01N 44°53' W 000°32'1 0.1
2019-Jul-16 05:00N 44°55' W 000°33'1 0.5
2019-Jul-16 02:02N 44°53' W 000°32'0 0.0
2019-Jul-16 01:44N 44°53' W 000°32'0 0.0
2019-Jul-16 01:24N 44°53' W 000°32'0 0.0
2019-Jul-16 00:50N 44°53' W 000°32'0 0.0
2019-Jul-16 00:04N 44°53' W 000°32'0 0.0
2019-Jul-15 23:54N 44°53' W 000°32'0 0.0
2019-Jul-15 23:28N 44°53' W 000°32'0 0.0
2019-Jul-15 22:58N 44°53' W 000°32'1 0.0
2019-Jul-14 05:37N 44°54' W 000°32'3 9.7
2019-Jul-14 05:21N 44°57' W 000°33'4 0.1
2019-Jul-13 05:01N 44°53' W 000°32'0 0.0
2019-Jul-13 04:59N 44°53' W 000°32'0 0.1
2019-Jul-13 03:29N 44°53' W 000°32'0 0.0
2019-Jul-13 02:51N 44°53' W 000°32'0 0.1
2019-Jul-12 22:59N 44°53' W 000°32'0 0.0
2019-Jul-12 07:14N 44°53' W 000°32'0 0.0
2019-Jul-12 07:00N 44°53' W 000°32'0 0.0
2019-Jul-12 06:30N 44°53' W 000°32'0 0.0
2019-Jul-12 06:00N 44°53' W 000°32'0 0.0
2019-Jul-12 05:30N 44°53' W 000°32'0 0.0
2019-Jul-12 05:00N 44°53' W 000°32'0 0.0
2019-Jul-12 04:30N 44°53' W 000°32'2 4.0
2019-Jul-12 04:00N 44°55' W 000°33'4 8.9
2019-Jul-12 03:30N 44°60' W 000°33'1 1.5
2019-Jul-12 03:00N 45°00' W 000°34'0 0.1
2019-Jul-12 02:30N 45°00' W 000°34'1 1.0
2019-Jul-12 01:30N 45°01' W 000°35'3 5.1
2019-Jul-12 01:00N 44°59' W 000°32'4 7.7
2019-Jul-12 00:30N 44°55' W 000°33'2 3.6
2019-Jul-12 00:00N 44°53' W 000°32'0 0.0
2019-Jul-11 23:30N 44°53' W 000°32'0 0.0
2019-Jul-11 23:00N 44°53' W 000°32'0 0.0
2019-Jul-11 22:29N 44°53' W 000°32'0 0.0
2019-Jul-11 21:34N 44°53' W 000°32'0 0.0
2019-Jul-11 21:10N 44°53' W 000°32'0 0.0
2019-Jul-11 05:28N 44°53' W 000°32'0 0.0
2019-Jul-11 04:59N 44°53' W 000°32'0 0.0
2019-Jul-11 04:13N 44°53' W 000°32'0 0.0
2019-Jul-11 03:59N 44°53' W 000°32'0 0.0
2019-Jul-11 03:27N 44°53' W 000°32'0 0.0
2019-Jul-11 02:51N 44°53' W 000°32'0 0.0
2019-Jul-11 02:28N 44°53' W 000°32'  
2019-Jul-08 18:46N 45°00' W 000°34'0 0.0
2019-Jul-08 08:39N 45°00' W 000°34'0 0.0
2019-Jul-08 08:30N 45°00' W 000°34'0 0.0
2019-Jul-08 08:00N 45°00' W 000°34'0 0.0
2019-Jul-08 07:30N 45°00' W 000°34'0 0.0
2019-Jul-08 06:52N 45°00' W 000°34'0 0.3
2019-Jul-08 06:27N 45°00' W 000°34'0 0.0
2019-Jul-08 06:00N 45°00' W 000°34'0 0.0
2019-Jul-08 05:25N 45°00' W 000°34'0 0.0
2019-Jul-08 05:00N 45°00' W 000°34'0 0.0
2019-Jul-08 03:43N 45°00' W 000°34'0 0.0
2019-Jul-08 03:30N 45°00' W 000°34'0 0.0
2019-Jul-08 03:01N 45°00' W 000°34'0 0.0
2019-Jul-08 02:30N 45°00' W 000°34'0 0.0
2019-Jul-08 02:00N 45°00' W 000°34'0 0.0
2019-Jul-08 01:30N 45°00' W 000°34'0 0.0
2019-Jul-08 01:00N 45°00' W 000°34'0 0.0
2019-Jul-08 00:30N 45°00' W 000°34'0 0.0
2019-Jul-08 00:00N 45°00' W 000°34'0 0.0
2019-Jul-07 23:30N 45°00' W 000°34'0 0.0
2019-Jul-07 23:00N 45°00' W 000°34'0 0.0
2019-Jul-07 22:26N 45°00' W 000°34'0 0.0
2019-Jul-07 22:00N 45°00' W 000°34'0 0.0
2019-Jul-07 21:30N 45°00' W 000°34'0 0.0
2019-Jul-07 21:00N 45°00' W 000°34'0 0.0
2019-Jul-07 20:16N 45°00' W 000°34'0 0.0
2019-Jul-07 19:59N 45°00' W 000°34'0 0.0
2019-Jul-07 05:36N 45°00' W 000°34'0 0.0
2019-Jul-07 04:40N 45°00' W 000°34'  
Track history (hours):
 
Tides and Currents Weather Stations Pressure Air Temp Water Temp Dewpoint Dewpoint Depression Visibility Wind Speed Wind Dir Waves Ship Positions

Quiberon

Operator: Brittany Ferries

Last reported at 2019-Jul-17 03:47 UTC. Time now 2019-Jul-20 14:20 UTC.
Position N 44°53' W 000°32'.

Length 25 m; draft 4.8 m.

Type: Tug. MMSI: 228296800.

Date/timePositionNaut miles runAvg speedWind from/ knotsBaromVisibWave heightAir tempDewpointWater temp
2019-Jul-17 03:47N 44°53' W 000°32'0 0.0
2019-Jul-17 03:29N 44°53' W 000°32'0 0.0
2019-Jul-17 03:01N 44°53' W 000°32'1 0.1
2019-Jul-16 05:00N 44°55' W 000°33'1 0.5
2019-Jul-16 02:02N 44°53' W 000°32'0 0.0
2019-Jul-16 01:44N 44°53' W 000°32'0 0.0
2019-Jul-16 01:24N 44°53' W 000°32'0 0.0
2019-Jul-16 00:50N 44°53' W 000°32'0 0.0
2019-Jul-16 00:04N 44°53' W 000°32'0 0.0
2019-Jul-15 23:54N 44°53' W 000°32'0 0.0
2019-Jul-15 23:28N 44°53' W 000°32'0 0.0
2019-Jul-15 22:58N 44°53' W 000°32'1 0.0
2019-Jul-14 05:37N 44°54' W 000°32'3 9.7
2019-Jul-14 05:21N 44°57' W 000°33'4 0.1
2019-Jul-13 05:01N 44°53' W 000°32'0 0.0
2019-Jul-13 04:59N 44°53' W 000°32'0 0.1
2019-Jul-13 03:29N 44°53' W 000°32'0 0.0
2019-Jul-13 02:51N 44°53' W 000°32'0 0.1
2019-Jul-12 22:59N 44°53' W 000°32'0 0.0
2019-Jul-12 07:14N 44°53' W 000°32'0 0.0
2019-Jul-12 07:00N 44°53' W 000°32'0 0.0
2019-Jul-12 06:30N 44°53' W 000°32'0 0.0
2019-Jul-12 06:00N 44°53' W 000°32'0 0.0
2019-Jul-12 05:30N 44°53' W 000°32'0 0.0
2019-Jul-12 05:00N 44°53' W 000°32'0 0.0
2019-Jul-12 04:30N 44°53' W 000°32'2 4.0
2019-Jul-12 04:00N 44°55' W 000°33'4 8.9
2019-Jul-12 03:30N 44°60' W 000°33'1 1.5
2019-Jul-12 03:00N 45°00' W 000°34'0 0.1
2019-Jul-12 02:30N 45°00' W 000°34'1 1.0
2019-Jul-12 01:30N 45°01' W 000°35'3 5.1
2019-Jul-12 01:00N 44°59' W 000°32'4 7.7
2019-Jul-12 00:30N 44°55' W 000°33'2 3.6
2019-Jul-12 00:00N 44°53' W 000°32'0 0.0
2019-Jul-11 23:30N 44°53' W 000°32'0 0.0
2019-Jul-11 23:00N 44°53' W 000°32'0 0.0
2019-Jul-11 22:29N 44°53' W 000°32'0 0.0
2019-Jul-11 21:34N 44°53' W 000°32'0 0.0
2019-Jul-11 21:10N 44°53' W 000°32'0 0.0
2019-Jul-11 05:28N 44°53' W 000°32'0 0.0
2019-Jul-11 04:59N 44°53' W 000°32'0 0.0
2019-Jul-11 04:13N 44°53' W 000°32'0 0.0
2019-Jul-11 03:59N 44°53' W 000°32'0 0.0
2019-Jul-11 03:27N 44°53' W 000°32'0 0.0
2019-Jul-11 02:51N 44°53' W 000°32'0 0.0
2019-Jul-11 02:28N 44°53' W 000°32'  
2019-Jul-08 18:46N 45°00' W 000°34'0 0.0
2019-Jul-08 08:39N 45°00' W 000°34'0 0.0
2019-Jul-08 08:30N 45°00' W 000°34'0 0.0
2019-Jul-08 08:00N 45°00' W 000°34'0 0.0
2019-Jul-08 07:30N 45°00' W 000°34'0 0.0
2019-Jul-08 06:52N 45°00' W 000°34'0 0.3
2019-Jul-08 06:27N 45°00' W 000°34'0 0.0
2019-Jul-08 06:00N 45°00' W 000°34'0 0.0
2019-Jul-08 05:25N 45°00' W 000°34'0 0.0
2019-Jul-08 05:00N 45°00' W 000°34'0 0.0
2019-Jul-08 03:43N 45°00' W 000°34'0 0.0
2019-Jul-08 03:30N 45°00' W 000°34'0 0.0
2019-Jul-08 03:01N 45°00' W 000°34'0 0.0
2019-Jul-08 02:30N 45°00' W 000°34'0 0.0
2019-Jul-08 02:00N 45°00' W 000°34'0 0.0
2019-Jul-08 01:30N 45°00' W 000°34'0 0.0
2019-Jul-08 01:00N 45°00' W 000°34'0 0.0
2019-Jul-08 00:30N 45°00' W 000°34'0 0.0
2019-Jul-08 00:00N 45°00' W 000°34'0 0.0
2019-Jul-07 23:30N 45°00' W 000°34'0 0.0
2019-Jul-07 23:00N 45°00' W 000°34'0 0.0
2019-Jul-07 22:26N 45°00' W 000°34'0 0.0
2019-Jul-07 22:00N 45°00' W 000°34'0 0.0
2019-Jul-07 21:30N 45°00' W 000°34'0 0.0
2019-Jul-07 21:00N 45°00' W 000°34'0 0.0
2019-Jul-07 20:16N 45°00' W 000°34'0 0.0
2019-Jul-07 19:59N 45°00' W 000°34'0 0.0
2019-Jul-07 05:36N 45°00' W 000°34'0 0.0
2019-Jul-07 04:40N 45°00' W 000°34'  

Dump ship's entire track history